My Meet Scores
Ella Sima, St. Charles Gymnastics Academy - MyMeetScores.com
Top100 | Top Teams | Upcoming Meets | Completed Meets | Latest | Add Scores | Help| Support | Bookmark and Share

Ella Sima, St. Charles Gymnastics Academy
Personal Bests
LevelVault BarsBeamFloorAA
38.8508.500 7.9008.15033.400
49.1509.350 9.4009.25036.900
69.2009.200 9.5759.62537.475
79.0509.600 9.4259.55037.025
AllLevels8.4258.100 7.5008.50032.525
Meet Scores
Date Meet Team Session Level Division Vault Bars Beam Floor AA
2019-02-15 Women's Midwest Open St. Charles Gymnastics Academy 04 7 Junior A 8.500 10 9.600 4T 9.425 1 9.250 4T 36.775 5
2019-01-11 St Jude Benefit Meet St. Charles Gymnastics Academy 4B 7 Jr A 9.050 2 9.525 4 8.900 9T 9.550 4T 37.025 3
2018-12-07 St. Nick Invite 2018 St. Charles Gymnastics Academy 6B 7 JrA 9.000 3 9.350 7 8.975 7T 9.450 5 36.775 5
2018-02-23 Kinetic Classic St. Charles Gymnastics Academy 9 6 Younger 9.075 21T 9.200 21T 9.575 4T 9.625 5T 37.475 6
2018-02-16 Big Classic St. Charles Gymnastics Academy 1A 6 Junior A 8.800 7T 8.875 8 9.500 3T 9.425 2T 36.600 4
2018-01-19 2018 SCEGA California Classic St. Charles Gymnastics Academy 1O 6 Child B 9.000 10 0.000 18 9.000 13 9.550 6 27.550 18
2018-01-12 St Jude Benefit Meet St. Charles Gymnastics Academy 4C 6 JrA 8.950 5 8.900 7T 9.425 4 9.300 3T 36.575 2T
2017-12-14 2017 Women's Hawaiian Pineapple Classic St. Charles Gymnastics Academy 9A 6 Ages10U 8.800 14 9.050 8T 8.500 19 9.400 8T 35.750 14
2017-11-17 SCGA Classic St. Charles Gymnastics Academy 3 6 JrA 9.200 5 9.050 2 8.675 7 9.550 2 36.475 4
2017-02-24 Kinetic Classic St. Charles Gymnastics Academy 5,6 4 All Ages 9.150 21T 8.850 60T 9.250 37T 8.850 74T 36.100 48T
2017-02-10 IGI Chicago Style Gymnastics Meet St. Charles Gymnastics Academy 621L 4 JrA 8.850 2 9.350 3 9.325 3 9.175 5 36.700 3
2017-01-20 2017 Bravo Classic St. Charles Gymnastics Academy 07B 4 9yrs 8.800 2 9.325 8 8.450 19T 9.000 9T 35.575 7T
2017-01-13 St Jude Benefit Meet St. Charles Gymnastics Academy 3A 4 Jr B 8.450 3T 9.300 2 9.350 5 9.150 2 36.250 2
2016-12-15 2016 Hawaiian Pineapple Sanction St. Charles Gymnastics Academy 9A 4 Age 9 9.150 3 9.100 6 9.400 3T 9.250 7 36.900 5
2016-03-10 2016 Illinois Level 4 State Meet St. Charles Gymnastics Academy All 4 Child-A 8.675 13 7.950 24 8.550 27 8.850 17 34.025 20
2016-02-05 St. Valentines Classic St. Charles Gymnastics Academy 1A AllLevels All Ages 8.425 42T 8.100 46T 7.500 68 8.500 39T 32.525 49
2016-01-22 King Arthur Invitational St. Charles Gymnastics Academy S12 4 Jr.A 7.600 16 7.800 15 8.650 14 8.600 14 32.650 15
2016-01-08 St Jude Benefit Meet St. Charles Gymnastics Academy 4A 4 Jr A 8.600 13 7.950 19 8.875 16 8.750 10 34.175 12
2015-12-17 2015 Hawaiian Pineapple Classic St. Charles Gymnastics Academy 1A 4 Ages 8U 7.950 14 7.100 17 9.000 6T 9.000 6T 33.050 12
2015-12-04 2015 Ultimate Wish Classic St. Charles Gymnastics Academy 7 4 All 8.350 45 7.900 58 8.200 64 8.900 38 33.350 56
2015-02-20 Midwest Open 2015 St. Charles Gymnastics Academy 3A 3 6-7 8.850 10 8.500 12 7.900 13 8.150 13 33.400 12
Get your scores on
a t-shirt, pin, or hoodie

Order by December 13

www.lazysuits.com